Terminal Aerodrome Forecast
Issued by NWS

Home | Current Version | Previous Version | Text Only | Print | Product List | Glossary Off
Versions: 1 2 3 4 5 6 7 8 9 10 11 12 13 14 15

000
FTUS43 KGRB 020520
TAFAUW
TAF
KAUW 020520Z 0206/0306 22005KT P6SM SCT060 BKN110
     FM020800 22006KT P6SM VCSH SCT050 BKN090 WS012/25035KT
     FM021400 25010G17KT P6SM VCSH BKN035 BKN100
     FM022000 30011G18KT P6SM SCT035 BKN070
     FM030100 32007KT P6SM SCT050=

USA.gov is the U.S. government's official web portal to all federal, state and local government web resources and services.